LFKJ 190700Z AUTO 06003KT 9999 SCT027 BKN035 OVC041 10/09 Q1015 NOSIG

ElémentsDécodage
LFKJ Station météo située sur l'aérodrome de AJACCIO Campo dell'Oro
190700Z émis le 19 du mois à 07h00 UTC
AUTO Bulletin édité par un automate
06003KT vent du 060°, 03 noeuds
9999 visibilité horizontale supérieure à 10 Km
SCT027 nuages épars (3/8 à 4/8) à 2700 pieds
BKN035 nuages morcelés (5/8 à 7/8) à 3500 pieds
OVC041 couverture nuageuse totale (8/8) à 4100 pieds
10/09 température 10°C, point de rosée 09°C
 soit une humidité relative de 94%
Q1015 la pression au niveau de la mer (QNH) est de 1015 hPa
NOSIG Pas de changement significatif prévu au cours des deux heures suivant l'heure de l'observation